sensor_id;sensor_type;location;lat;lon;timestamp;pressure;altitude;pressure_sealevel;temperature;humidity
64460;BME280;50828;53.756;21.140;2023-04-28T00:01:53;100247.11;;;0.93;61.19
64460;BME280;50828;53.756;21.140;2023-04-28T00:07:01;100248.33;;;0.87;61.15
64460;BME280;50828;53.756;21.140;2023-04-28T00:12:08;100249.70;;;0.82;61.32
64460;BME280;50828;53.756;21.140;2023-04-28T00:17:16;100249.34;;;0.75;61.36
64460;BME280;50828;53.756;21.140;2023-04-28T00:22:23;100251.42;;;0.70;61.61
64460;BME280;50828;53.756;21.140;2023-04-28T00:27:31;100250.55;;;0.68;61.77
64460;BME280;50828;53.756;21.140;2023-04-28T00:32:38;100249.67;;;0.66;61.96
64460;BME280;50828;53.756;21.140;2023-04-28T00:37:46;100252.42;;;0.64;61.94
64460;BME280;50828;53.756;21.140;2023-04-28T00:42:53;100256.25;;;0.61;62.22
64460;BME280;50828;53.756;21.140;2023-04-28T00:48:01;100259.17;;;0.58;62.31
64460;BME280;50828;53.756;21.140;2023-04-28T00:55:09;100258.13;;;0.54;62.45
64460;BME280;50828;53.756;21.140;2023-04-28T01:01:04;100257.27;;;0.57;62.87
64460;BME280;50828;53.756;21.140;2023-04-28T01:06:13;100259.02;;;0.60;62.82
64460;BME280;50828;53.756;21.140;2023-04-28T01:11:20;100257.27;;;0.57;62.66
64460;BME280;50828;53.756;21.140;2023-04-28T01:16:46;100256.57;;;0.53;62.49
64460;BME280;50828;53.756;21.140;2023-04-28T01:21:54;100257.77;;;0.48;62.50
64460;BME280;50828;53.756;21.140;2023-04-28T01:27:02;100254.45;;;0.43;62.52
64460;BME280;50828;53.756;21.140;2023-04-28T01:32:10;100256.00;;;0.39;62.64
64460;BME280;50828;53.756;21.140;2023-04-28T01:37:17;100255.99;;;0.34;62.63
64460;BME280;50828;53.756;21.140;2023-04-28T01:42:24;100257.35;;;0.31;62.72
64460;BME280;50828;53.756;21.140;2023-04-28T01:47:32;100257.87;;;0.26;62.82
64460;BME280;50828;53.756;21.140;2023-04-28T01:52:39;100253.52;;;0.24;62.67
64460;BME280;50828;53.756;21.140;2023-04-28T01:57:47;100253.68;;;0.20;62.77
64460;BME280;50828;53.756;21.140;2023-04-28T02:02:55;100253.67;;;0.18;62.88
64460;BME280;50828;53.756;21.140;2023-04-28T02:08:02;100253.30;;;0.12;62.55
64460;BME280;50828;53.756;21.140;2023-04-28T02:13:10;100256.58;;;0.07;62.45
64460;BME280;50828;53.756;21.140;2023-04-28T02:18:18;100244.04;;;-0.05;62.33
64460;BME280;50828;53.756;21.140;2023-04-28T02:23:25;100262.77;;;-0.02;62.35
64460;BME280;50828;53.756;21.140;2023-04-28T02:28:34;100263.06;;;-0.07;62.20
64460;BME280;50828;53.756;21.140;2023-04-28T02:33:43;100258.54;;;-0.13;62.13
64460;BME280;50828;53.756;21.140;2023-04-28T02:38:50;100262.33;;;-0.17;62.06
64460;BME280;50828;53.756;21.140;2023-04-28T02:43:57;100259.36;;;-0.23;62.15
64460;BME280;50828;53.756;21.140;2023-04-28T02:49:05;100263.30;;;-0.27;62.29
64460;BME280;50828;53.756;21.140;2023-04-28T02:54:12;100260.51;;;-0.32;62.30
64460;BME280;50828;53.756;21.140;2023-04-28T02:59:20;100262.70;;;-0.37;62.65
64460;BME280;50828;53.756;21.140;2023-04-28T03:04:27;100269.96;;;-0.41;62.58
64460;BME280;50828;53.756;21.140;2023-04-28T03:09:35;100269.41;;;-0.45;62.64
64460;BME280;50828;53.756;21.140;2023-04-28T03:14:46;100271.98;;;-0.48;62.77
64460;BME280;50828;53.756;21.140;2023-04-28T03:19:53;100273.69;;;-0.51;63.06
64460;BME280;50828;53.756;21.140;2023-04-28T03:25:01;100277.13;;;-0.53;63.13
64460;BME280;50828;53.756;21.140;2023-04-28T03:30:12;100279.37;;;-0.56;63.13
64460;BME280;50828;53.756;21.140;2023-04-28T03:35:19;100277.44;;;-0.60;63.02
64460;BME280;50828;53.756;21.140;2023-04-28T03:40:27;100280.73;;;-0.58;62.94
64460;BME280;50828;53.756;21.140;2023-04-28T03:45:50;100284.92;;;-0.54;63.15
64460;BME280;50828;53.756;21.140;2023-04-28T03:50:57;100290.89;;;-0.43;63.26
64460;BME280;50828;53.756;21.140;2023-04-28T03:56:06;100288.02;;;-0.30;63.45
64460;BME280;50828;53.756;21.140;2023-04-28T04:01:14;100287.94;;;-0.17;63.48
64460;BME280;50828;53.756;21.140;2023-04-28T04:06:21;100296.68;;;-0.04;63.50
64460;BME280;50828;53.756;21.140;2023-04-28T04:11:30;100301.95;;;0.07;63.83
64460;BME280;50828;53.756;21.140;2023-04-28T04:16:38;100301.84;;;0.21;63.84
64460;BME280;50828;53.756;21.140;2023-04-28T04:21:46;100302.26;;;0.35;64.03
64460;BME280;50828;53.756;21.140;2023-04-28T04:26:53;100304.21;;;0.52;64.41
64460;BME280;50828;53.756;21.140;2023-04-28T04:32:12;100306.19;;;0.69;64.75
64460;BME280;50828;53.756;21.140;2023-04-28T04:37:20;100308.33;;;0.88;64.82
64460;BME280;50828;53.756;21.140;2023-04-28T04:42:36;100311.66;;;1.10;64.91
64460;BME280;50828;53.756;21.140;2023-04-28T04:47:45;100313.77;;;1.36;64.93
64460;BME280;50828;53.756;21.140;2023-04-28T04:52:53;100316.73;;;1.63;64.96
64460;BME280;50828;53.756;21.140;2023-04-28T04:58:02;100318.44;;;1.93;65.00
64460;BME280;50828;53.756;21.140;2023-04-28T05:03:30;100316.79;;;2.24;65.03
64460;BME280;50828;53.756;21.140;2023-04-28T05:08:38;100313.21;;;2.54;65.00
64460;BME280;50828;53.756;21.140;2023-04-28T05:13:46;100316.55;;;2.85;64.87
64460;BME280;50828;53.756;21.140;2023-04-28T05:18:56;100320.21;;;3.14;64.50
64460;BME280;50828;53.756;21.140;2023-04-28T05:24:04;100322.09;;;3.42;64.54
64460;BME280;50828;53.756;21.140;2023-04-28T05:29:12;100322.58;;;3.70;64.43
64460;BME280;50828;53.756;21.140;2023-04-28T05:34:20;100321.96;;;3.99;64.37
64460;BME280;50828;53.756;21.140;2023-04-28T05:39:29;100317.61;;;4.31;64.14
64460;BME280;50828;53.756;21.140;2023-04-28T05:44:38;100317.59;;;4.62;64.08
64460;BME280;50828;53.756;21.140;2023-04-28T05:49:48;100318.58;;;4.93;63.70
64460;BME280;50828;53.756;21.140;2023-04-28T05:54:55;100325.09;;;5.26;63.52
64460;BME280;50828;53.756;21.140;2023-04-28T06:00:05;100328.49;;;5.54;63.31
64460;BME280;50828;53.756;21.140;2023-04-28T06:05:15;100334.24;;;5.76;63.07
64460;BME280;50828;53.756;21.140;2023-04-28T06:10:24;100333.76;;;5.96;62.89
64460;BME280;50828;53.756;21.140;2023-04-28T06:15:33;100328.63;;;6.20;62.74
64460;BME280;50828;53.756;21.140;2023-04-28T06:20:41;100329.29;;;6.48;62.13
64460;BME280;50828;53.756;21.140;2023-04-28T06:25:48;100331.91;;;6.82;61.83
64460;BME280;50828;53.756;21.140;2023-04-28T06:30:57;100332.21;;;7.17;61.39
64460;BME280;50828;53.756;21.140;2023-04-28T06:36:07;100331.46;;;7.49;60.92
64460;BME280;50828;53.756;21.140;2023-04-28T06:41:20;100318.35;;;7.69;60.09
64460;BME280;50828;53.756;21.140;2023-04-28T06:46:30;100331.42;;;8.00;59.80
64460;BME280;50828;53.756;21.140;2023-04-28T06:51:39;100329.92;;;8.23;59.29
64460;BME280;50828;53.756;21.140;2023-04-28T06:56:48;100328.96;;;8.47;59.14
64460;BME280;50828;53.756;21.140;2023-04-28T07:01:56;100325.36;;;8.68;58.38
64460;BME280;50828;53.756;21.140;2023-04-28T07:07:05;100325.23;;;8.85;57.74
64460;BME280;50828;53.756;21.140;2023-04-28T07:12:14;100324.73;;;9.02;57.08
64460;BME280;50828;53.756;21.140;2023-04-28T07:17:21;100325.86;;;9.17;56.31
64460;BME280;50828;53.756;21.140;2023-04-28T07:22:28;100321.77;;;9.29;55.58
64460;BME280;50828;53.756;21.140;2023-04-28T07:27:36;100319.23;;;9.43;55.08
64460;BME280;50828;53.756;21.140;2023-04-28T07:32:47;100317.52;;;9.58;54.82
64460;BME280;50828;53.756;21.140;2023-04-28T07:37:55;100318.33;;;9.76;54.38
64460;BME280;50828;53.756;21.140;2023-04-28T07:43:03;100317.09;;;9.92;53.27
64460;BME280;50828;53.756;21.140;2023-04-28T07:48:12;100315.57;;;10.05;52.33
64460;BME280;50828;53.756;21.140;2023-04-28T07:53:20;100309.22;;;10.21;51.28
64460;BME280;50828;53.756;21.140;2023-04-28T07:58:28;100304.78;;;10.37;50.00
64460;BME280;50828;53.756;21.140;2023-04-28T08:03:35;100304.46;;;10.47;50.30
64460;BME280;50828;53.756;21.140;2023-04-28T08:08:43;100300.14;;;10.54;50.02
64460;BME280;50828;53.756;21.140;2023-04-28T08:13:51;100301.29;;;10.61;49.96
64460;BME280;50828;53.756;21.140;2023-04-28T08:19:00;100310.52;;;10.73;49.18
64460;BME280;50828;53.756;21.140;2023-04-28T08:24:08;100307.95;;;10.81;47.75
64460;BME280;50828;53.756;21.140;2023-04-28T08:29:17;100303.52;;;10.81;47.12
64460;BME280;50828;53.756;21.140;2023-04-28T08:34:25;100297.85;;;10.82;46.99
64460;BME280;50828;53.756;21.140;2023-04-28T08:39:34;100294.29;;;10.83;46.49
64460;BME280;50828;53.756;21.140;2023-04-28T08:44:43;100296.00;;;10.84;46.18
64460;BME280;50828;53.756;21.140;2023-04-28T08:49:53;100294.52;;;10.86;46.10
64460;BME280;50828;53.756;21.140;2023-04-28T08:55:09;100291.23;;;10.89;45.88
64460;BME280;50828;53.756;21.140;2023-04-28T09:00:19;100283.21;;;10.96;45.97
64460;BME280;50828;53.756;21.140;2023-04-28T09:05:27;100279.94;;;11.03;45.76
64460;BME280;50828;53.756;21.140;2023-04-28T09:10:36;100282.38;;;11.09;44.41
64460;BME280;50828;53.756;21.140;2023-04-28T09:15:44;100277.07;;;11.05;43.44
64460;BME280;50828;53.756;21.140;2023-04-28T09:21:03;100276.36;;;11.00;43.77
64460;BME280;50828;53.756;21.140;2023-04-28T09:26:12;100274.95;;;11.00;43.19
64460;BME280;50828;53.756;21.140;2023-04-28T09:31:26;100266.70;;;11.04;43.32
64460;BME280;50828;53.756;21.140;2023-04-28T09:36:33;100261.73;;;11.14;43.46
64460;BME280;50828;53.756;21.140;2023-04-28T09:41:43;100264.12;;;11.24;43.51
64460;BME280;50828;53.756;21.140;2023-04-28T09:46:51;100260.73;;;11.30;43.29
64460;BME280;50828;53.756;21.140;2023-04-28T09:52:13;100254.30;;;11.36;42.68
64460;BME280;50828;53.756;21.140;2023-04-28T09:57:22;100252.37;;;11.44;42.66
64460;BME280;50828;53.756;21.140;2023-04-28T10:02:30;100254.52;;;11.52;42.26
64460;BME280;50828;53.756;21.140;2023-04-28T10:07:49;100247.77;;;11.53;41.13
64460;BME280;50828;53.756;21.140;2023-04-28T10:13:00;100248.70;;;11.52;41.73
64460;BME280;50828;53.756;21.140;2023-04-28T10:18:12;100246.46;;;11.55;41.35
64460;BME280;50828;53.756;21.140;2023-04-28T10:23:50;100243.30;;;11.54;40.12
64460;BME280;50828;53.756;21.140;2023-04-28T10:29:03;100237.73;;;11.53;39.78
64460;BME280;50828;53.756;21.140;2023-04-28T10:34:24;100228.16;;;11.54;40.74
64460;BME280;50828;53.756;21.140;2023-04-28T10:39:36;100221.90;;;11.60;40.38
64460;BME280;50828;53.756;21.140;2023-04-28T10:44:45;100221.20;;;11.68;40.39
64460;BME280;50828;53.756;21.140;2023-04-28T10:50:12;100225.95;;;11.72;39.26
64460;BME280;50828;53.756;21.140;2023-04-28T10:55:31;100226.16;;;11.72;39.18
64460;BME280;50828;53.756;21.140;2023-04-28T11:00:43;100224.70;;;11.69;39.37
64460;BME280;50828;53.756;21.140;2023-04-28T11:06:22;100221.44;;;11.67;38.86
64460;BME280;50828;53.756;21.140;2023-04-28T11:11:32;100215.48;;;11.66;38.42
64460;BME280;50828;53.756;21.140;2023-04-28T11:16:50;100214.67;;;11.64;39.15
64460;BME280;50828;53.756;21.140;2023-04-28T11:21:59;100210.58;;;11.65;39.07
64460;BME280;50828;53.756;21.140;2023-04-28T11:27:07;100207.69;;;11.67;38.94
64460;BME280;50828;53.756;21.140;2023-04-28T11:32:16;100208.12;;;11.69;38.76
64460;BME280;50828;53.756;21.140;2023-04-28T11:37:24;100201.63;;;11.72;39.30
64460;BME280;50828;53.756;21.140;2023-04-28T11:42:32;100199.19;;;11.80;38.66
64460;BME280;50828;53.756;21.140;2023-04-28T11:47:40;100190.82;;;11.85;38.17
64460;BME280;50828;53.756;21.140;2023-04-28T11:52:52;100187.59;;;11.95;38.32
64460;BME280;50828;53.756;21.140;2023-04-28T11:58:19;100188.55;;;12.05;37.18
64460;BME280;50828;53.756;21.140;2023-04-28T12:03:28;100188.21;;;12.17;36.75
64460;BME280;50828;53.756;21.140;2023-04-28T12:08:37;100190.55;;;12.24;36.27
64460;BME280;50828;53.756;21.140;2023-04-28T12:14:04;100190.75;;;12.23;36.62
64460;BME280;50828;53.756;21.140;2023-04-28T12:19:13;100187.34;;;12.20;37.00
64460;BME280;50828;53.756;21.140;2023-04-28T12:24:22;100184.16;;;12.21;37.70
64460;BME280;50828;53.756;21.140;2023-04-28T12:29:42;100183.23;;;12.21;38.06
64460;BME280;50828;53.756;21.140;2023-04-28T12:34:52;100181.55;;;12.24;37.31
64460;BME280;50828;53.756;21.140;2023-04-28T12:39:59;100178.04;;;12.23;36.90
64460;BME280;50828;53.756;21.140;2023-04-28T12:45:10;100174.61;;;12.21;36.74
64460;BME280;50828;53.756;21.140;2023-04-28T12:50:18;100171.65;;;12.20;36.47
64460;BME280;50828;53.756;21.140;2023-04-28T12:55:27;100165.00;;;12.22;36.91
64460;BME280;50828;53.756;21.140;2023-04-28T13:00:35;100161.59;;;12.27;36.96
64460;BME280;50828;53.756;21.140;2023-04-28T13:05:44;100148.22;;;12.22;36.54
64460;BME280;50828;53.756;21.140;2023-04-28T13:10:51;100158.20;;;12.28;36.07
64460;BME280;50828;53.756;21.140;2023-04-28T13:16:00;100158.14;;;12.26;36.39
64460;BME280;50828;53.756;21.140;2023-04-28T13:21:10;100156.07;;;12.25;36.09
64460;BME280;50828;53.756;21.140;2023-04-28T13:26:18;100149.35;;;12.25;36.04
64460;BME280;50828;53.756;21.140;2023-04-28T13:31:29;100148.02;;;12.23;36.06
64460;BME280;50828;53.756;21.140;2023-04-28T13:36:38;100142.62;;;12.25;36.79
64460;BME280;50828;53.756;21.140;2023-04-28T13:41:47;100141.40;;;12.33;36.95
64460;BME280;50828;53.756;21.140;2023-04-28T13:46:55;100139.29;;;12.40;35.17
64460;BME280;50828;53.756;21.140;2023-04-28T13:52:04;100134.83;;;12.45;35.13
64460;BME280;50828;53.756;21.140;2023-04-28T13:57:13;100131.55;;;12.47;35.68
64460;BME280;50828;53.756;21.140;2023-04-28T14:02:21;100128.33;;;12.52;35.95
64460;BME280;50828;53.756;21.140;2023-04-28T14:07:30;100123.92;;;12.55;36.00
64460;BME280;50828;53.756;21.140;2023-04-28T14:12:38;100120.83;;;12.57;35.68
64460;BME280;50828;53.756;21.140;2023-04-28T14:17:48;100114.74;;;12.62;35.99
64460;BME280;50828;53.756;21.140;2023-04-28T14:22:56;100117.80;;;12.68;35.02
64460;BME280;50828;53.756;21.140;2023-04-28T14:28:05;100112.94;;;12.66;34.58
64460;BME280;50828;53.756;21.140;2023-04-28T14:33:13;100108.39;;;12.62;34.64
64460;BME280;50828;53.756;21.140;2023-04-28T14:38:20;100102.55;;;12.59;34.54
64460;BME280;50828;53.756;21.140;2023-04-28T14:43:28;100103.48;;;12.57;34.37
64460;BME280;50828;53.756;21.140;2023-04-28T14:48:36;100097.94;;;12.59;34.71
64460;BME280;50828;53.756;21.140;2023-04-28T14:53:45;100090.90;;;12.62;34.81
64460;BME280;50828;53.756;21.140;2023-04-28T14:58:54;100092.04;;;12.68;34.70
64460;BME280;50828;53.756;21.140;2023-04-28T15:04:02;100090.90;;;12.73;34.79
64460;BME280;50828;53.756;21.140;2023-04-28T15:09:10;100086.80;;;12.77;34.73
64460;BME280;50828;53.756;21.140;2023-04-28T15:14:19;100084.67;;;12.80;34.45
64460;BME280;50828;53.756;21.140;2023-04-28T15:19:26;100081.48;;;12.81;34.31
64460;BME280;50828;53.756;21.140;2023-04-28T15:24:33;100079.12;;;12.79;34.48
64460;BME280;50828;53.756;21.140;2023-04-28T15:29:41;100081.20;;;12.73;34.49
64460;BME280;50828;53.756;21.140;2023-04-28T15:34:49;100078.73;;;12.65;34.77
64460;BME280;50828;53.756;21.140;2023-04-28T15:39:58;100078.08;;;12.60;34.65
64460;BME280;50828;53.756;21.140;2023-04-28T15:45:08;100076.19;;;12.55;34.69
64460;BME280;50828;53.756;21.140;2023-04-28T15:50:17;100074.54;;;12.53;34.95
64460;BME280;50828;53.756;21.140;2023-04-28T15:55:27;100071.63;;;12.55;35.03
64460;BME280;50828;53.756;21.140;2023-04-28T16:00:36;100071.02;;;12.57;34.88
64460;BME280;50828;53.756;21.140;2023-04-28T16:05:45;100064.96;;;12.58;34.90
64460;BME280;50828;53.756;21.140;2023-04-28T16:10:54;100061.50;;;12.56;34.96
64460;BME280;50828;53.756;21.140;2023-04-28T16:16:03;100055.43;;;12.54;34.63
64460;BME280;50828;53.756;21.140;2023-04-28T16:21:16;100053.02;;;12.53;34.29
64460;BME280;50828;53.756;21.140;2023-04-28T16:26:24;100049.60;;;12.50;34.33
64460;BME280;50828;53.756;21.140;2023-04-28T16:31:31;100045.91;;;12.46;34.48
64460;BME280;50828;53.756;21.140;2023-04-28T16:36:40;100039.59;;;12.42;34.44
64460;BME280;50828;53.756;21.140;2023-04-28T16:41:48;100028.83;;;12.31;34.82
64460;BME280;50828;53.756;21.140;2023-04-28T16:46:56;100036.30;;;12.30;35.14
64460;BME280;50828;53.756;21.140;2023-04-28T16:52:05;100038.08;;;12.22;35.73
64460;BME280;50828;53.756;21.140;2023-04-28T16:57:15;100042.27;;;12.16;36.78
64460;BME280;50828;53.756;21.140;2023-04-28T17:02:24;100038.38;;;12.08;36.83
64460;BME280;50828;53.756;21.140;2023-04-28T17:07:34;100030.88;;;11.99;37.33
64460;BME280;50828;53.756;21.140;2023-04-28T17:12:43;100033.38;;;11.87;38.20
64460;BME280;50828;53.756;21.140;2023-04-28T17:17:51;100037.26;;;11.75;38.67
64460;BME280;50828;53.756;21.140;2023-04-28T17:22:59;100035.23;;;11.66;39.28
64460;BME280;50828;53.756;21.140;2023-04-28T17:28:08;100035.14;;;11.56;40.04
64460;BME280;50828;53.756;21.140;2023-04-28T17:33:17;100036.16;;;11.45;40.97
64460;BME280;50828;53.756;21.140;2023-04-28T17:38:25;100031.44;;;11.32;41.46
64460;BME280;50828;53.756;21.140;2023-04-28T17:43:34;100033.67;;;11.17;41.79
64460;BME280;50828;53.756;21.140;2023-04-28T17:48:43;100031.05;;;11.00;41.80
64460;BME280;50828;53.756;21.140;2023-04-28T17:53:51;100033.27;;;10.82;42.03
64460;BME280;50828;53.756;21.140;2023-04-28T17:59:02;100031.73;;;10.60;42.13
64460;BME280;50828;53.756;21.140;2023-04-28T18:04:11;100030.50;;;10.38;42.14
64460;BME280;50828;53.756;21.140;2023-04-28T18:09:19;100033.45;;;10.16;42.37
64460;BME280;50828;53.756;21.140;2023-04-28T18:14:27;100032.77;;;9.93;42.46
64460;BME280;50828;53.756;21.140;2023-04-28T18:19:35;100035.06;;;9.70;42.54
64460;BME280;50828;53.756;21.140;2023-04-28T18:24:43;100035.77;;;9.46;42.91
64460;BME280;50828;53.756;21.140;2023-04-28T18:29:54;100039.98;;;9.22;43.78
64460;BME280;50828;53.756;21.140;2023-04-28T18:35:06;100043.23;;;8.99;44.16
64460;BME280;50828;53.756;21.140;2023-04-28T18:40:15;100041.54;;;8.77;44.27
64460;BME280;50828;53.756;21.140;2023-04-28T18:45:22;100046.85;;;8.54;44.35
64460;BME280;50828;53.756;21.140;2023-04-28T18:50:35;100047.02;;;8.32;44.88
64460;BME280;50828;53.756;21.140;2023-04-28T18:55:43;100046.33;;;8.09;44.96
64460;BME280;50828;53.756;21.140;2023-04-28T19:00:53;100042.63;;;7.87;45.24
64460;BME280;50828;53.756;21.140;2023-04-28T19:06:01;100036.46;;;7.64;45.48
64460;BME280;50828;53.756;21.140;2023-04-28T19:11:10;100034.27;;;7.43;45.87
64460;BME280;50828;53.756;21.140;2023-04-28T19:16:17;100031.17;;;7.22;46.48
64460;BME280;50828;53.756;21.140;2023-04-28T19:21:26;100024.53;;;7.02;46.84
64460;BME280;50828;53.756;21.140;2023-04-28T19:26:35;100026.60;;;6.83;47.28
64460;BME280;50828;53.756;21.140;2023-04-28T19:31:43;100026.55;;;6.65;47.71
64460;BME280;50828;53.756;21.140;2023-04-28T19:36:52;100021.91;;;6.48;47.83
64460;BME280;50828;53.756;21.140;2023-04-28T19:42:02;100025.63;;;6.31;48.10
64460;BME280;50828;53.756;21.140;2023-04-28T19:47:12;100027.38;;;6.17;48.25
64460;BME280;50828;53.756;21.140;2023-04-28T19:52:21;100026.30;;;6.03;48.81
64460;BME280;50828;53.756;21.140;2023-04-28T19:57:29;100024.14;;;5.88;48.92
64460;BME280;50828;53.756;21.140;2023-04-28T20:02:38;100024.27;;;5.75;49.28
64460;BME280;50828;53.756;21.140;2023-04-28T20:07:48;100025.95;;;5.61;49.47
64460;BME280;50828;53.756;21.140;2023-04-28T20:12:58;100021.67;;;5.49;49.76
64460;BME280;50828;53.756;21.140;2023-04-28T20:18:07;100023.46;;;5.38;50.28
64460;BME280;50828;53.756;21.140;2023-04-28T20:23:15;100029.60;;;5.28;50.46
64460;BME280;50828;53.756;21.140;2023-04-28T20:28:24;100032.77;;;5.19;50.72
64460;BME280;50828;53.756;21.140;2023-04-28T20:33:32;100032.23;;;5.08;50.78
64460;BME280;50828;53.756;21.140;2023-04-28T20:38:40;100032.08;;;4.99;50.67
64460;BME280;50828;53.756;21.140;2023-04-28T20:43:49;100028.94;;;4.89;51.05
64460;BME280;50828;53.756;21.140;2023-04-28T20:48:58;100026.86;;;4.79;51.30
64460;BME280;50828;53.756;21.140;2023-04-28T20:54:06;100028.10;;;4.68;51.10
64460;BME280;50828;53.756;21.140;2023-04-28T20:59:15;100030.38;;;4.57;51.29
64460;BME280;50828;53.756;21.140;2023-04-28T21:04:22;100030.21;;;4.46;51.34
64460;BME280;50828;53.756;21.140;2023-04-28T21:09:29;100031.09;;;4.34;51.50
64460;BME280;50828;53.756;21.140;2023-04-28T21:14:37;100031.27;;;4.24;51.87
64460;BME280;50828;53.756;21.140;2023-04-28T21:19:45;100032.63;;;4.14;51.98
64460;BME280;50828;53.756;21.140;2023-04-28T21:24:53;100031.55;;;4.04;52.33
64460;BME280;50828;53.756;21.140;2023-04-28T21:30:02;100028.73;;;3.94;52.75
64460;BME280;50828;53.756;21.140;2023-04-28T21:35:10;100025.21;;;3.84;53.02
64460;BME280;50828;53.756;21.140;2023-04-28T21:40:19;100025.68;;;3.75;53.28
64460;BME280;50828;53.756;21.140;2023-04-28T21:45:27;100021.27;;;3.67;53.39
64460;BME280;50828;53.756;21.140;2023-04-28T21:50:35;100019.46;;;3.60;53.53
64460;BME280;50828;53.756;21.140;2023-04-28T21:55:44;100016.94;;;3.53;53.83
64460;BME280;50828;53.756;21.140;2023-04-28T22:00:52;100017.89;;;3.45;53.74
64460;BME280;50828;53.756;21.140;2023-04-28T22:06:01;100009.61;;;3.38;54.20
64460;BME280;50828;53.756;21.140;2023-04-28T22:11:10;100009.00;;;3.32;54.26
64460;BME280;50828;53.756;21.140;2023-04-28T22:16:19;100006.81;;;3.26;54.45
64460;BME280;50828;53.756;21.140;2023-04-28T22:21:27;100005.30;;;3.22;54.61
64460;BME280;50828;53.756;21.140;2023-04-28T22:26:37;100002.73;;;3.18;54.84
64460;BME280;50828;53.756;21.140;2023-04-28T22:31:46;99998.11;;;3.11;54.98
64460;BME280;50828;53.756;21.140;2023-04-28T22:36:53;99997.48;;;3.07;55.18
64460;BME280;50828;53.756;21.140;2023-04-28T22:42:02;99992.83;;;3.01;55.22
64460;BME280;50828;53.756;21.140;2023-04-28T22:47:10;99989.23;;;2.97;55.37
64460;BME280;50828;53.756;21.140;2023-04-28T22:52:17;99984.92;;;2.92;55.48
64460;BME280;50828;53.756;21.140;2023-04-28T22:57:26;99987.23;;;2.87;55.76
64460;BME280;50828;53.756;21.140;2023-04-28T23:02:34;99983.11;;;2.83;55.73
64460;BME280;50828;53.756;21.140;2023-04-28T23:07:43;99979.16;;;2.79;55.96
64460;BME280;50828;53.756;21.140;2023-04-28T23:12:51;99975.21;;;2.74;56.17
64460;BME280;50828;53.756;21.140;2023-04-28T23:18:00;99978.38;;;2.71;56.13
64460;BME280;50828;53.756;21.140;2023-04-28T23:23:07;99970.74;;;2.68;56.56
64460;BME280;50828;53.756;21.140;2023-04-28T23:28:16;99968.67;;;2.66;56.64
64460;BME280;50828;53.756;21.140;2023-04-28T23:33:24;99960.17;;;2.65;57.28
64460;BME280;50828;53.756;21.140;2023-04-28T23:38:33;99959.83;;;2.64;57.59
64460;BME280;50828;53.756;21.140;2023-04-28T23:43:41;99954.09;;;2.65;57.65
64460;BME280;50828;53.756;21.140;2023-04-28T23:48:48;99950.94;;;2.66;57.21
64460;BME280;50828;53.756;21.140;2023-04-28T23:53:57;99951.57;;;2.73;57.00
64460;BME280;50828;53.756;21.140;2023-04-28T23:59:05;99949.89;;;2.83;56.99
